createdAt,value
2022-08-11T00:02:02.538Z,77.70
2022-08-11T00:04:37.386Z,77.60
2022-08-11T00:07:07.087Z,77.60
2022-08-11T00:09:39.490Z,77.70
2022-08-11T00:12:14.802Z,78.30
2022-08-11T00:14:44.800Z,78.70
2022-08-11T00:17:16.492Z,78.50
2022-08-11T00:20:15.193Z,78.20
2022-08-11T00:22:41.986Z,78.60
2022-08-11T00:25:22.762Z,79.00
2022-08-11T00:27:50.194Z,78.80
2022-08-11T00:30:21.155Z,79.30
2022-08-11T00:32:56.476Z,79.10
2022-08-11T00:35:55.335Z,79.00
2022-08-11T00:38:25.993Z,78.90
2022-08-11T00:41:01.293Z,78.90
2022-08-11T00:43:57.731Z,78.90
2022-08-11T00:46:36.012Z,78.70
2022-08-11T00:49:22.294Z,78.90
2022-08-11T00:52:16.122Z,78.80
2022-08-11T00:55:21.105Z,78.70
2022-08-11T00:57:57.364Z,78.80
2022-08-11T01:00:32.815Z,78.90
2022-08-11T01:03:02.949Z,79.10
2022-08-11T01:05:56.071Z,79.20
2022-08-11T01:08:30.156Z,79.20
2022-08-11T01:11:25.874Z,79.10
2022-08-11T01:14:08.510Z,78.90
2022-08-11T01:17:11.736Z,78.70
2022-08-11T01:20:46.181Z,78.30
2022-08-11T01:23:48.860Z,78.20
2022-08-11T01:26:42.869Z,78.10
2022-08-11T01:29:34.936Z,77.90
2022-08-11T01:32:12.468Z,77.90
2022-08-11T01:35:17.502Z,77.90
2022-08-11T01:38:19.129Z,77.80
2022-08-11T01:41:21.226Z,77.60
2022-08-11T01:44:18.881Z,77.60
2022-08-11T01:46:58.162Z,77.70
2022-08-11T01:50:06.812Z,77.70
2022-08-11T01:52:49.347Z,77.70
2022-08-11T01:55:31.931Z,77.70
2022-08-11T01:58:52.820Z,77.70
2022-08-11T02:01:50.680Z,77.60
2022-08-11T02:04:42.698Z,77.70
2022-08-11T02:07:42.933Z,77.80
2022-08-11T02:10:53.101Z,77.80
2022-08-11T02:13:51.900Z,77.90
2022-08-11T02:16:44.399Z,77.80
2022-08-11T02:19:46.113Z,78.10
2022-08-11T02:22:34.787Z,78.10
2022-08-11T02:25:39.328Z,78.00
2022-08-11T02:28:30.510Z,78.00
2022-08-11T02:32:23.954Z,78.10
2022-08-11T02:34:59.843Z,78.20
2022-08-11T02:37:33.907Z,78.30
2022-08-11T02:40:25.414Z,78.40
2022-08-11T02:43:06.506Z,79.00
2022-08-11T02:46:07.357Z,79.70
2022-08-11T02:49:18.595Z,80.20
2022-08-11T02:52:07.532Z,80.80
2022-08-11T02:54:54.285Z,81.70
2022-08-11T02:58:03.570Z,81.90
2022-08-11T03:00:44.813Z,82.60
2022-08-11T03:03:26.142Z,83.30
2022-08-11T03:06:20.907Z,83.50
2022-08-11T03:09:03.646Z,83.80
2022-08-11T03:12:26.050Z,83.50
2022-08-11T03:15:39.611Z,83.50
2022-08-11T03:18:23.257Z,83.50
2022-08-11T03:21:13.370Z,83.30
2022-08-11T03:23:59.433Z,83.30
2022-08-11T03:26:43.396Z,83.30
2022-08-11T03:29:25.140Z,83.00
2022-08-11T03:32:06.274Z,83.10
2022-08-11T03:34:38.142Z,83.20
2022-08-11T03:37:58.073Z,83.70
2022-08-11T03:42:02.114Z,83.70
2022-08-11T03:44:41.487Z,83.90
2022-08-11T03:47:18.215Z,83.80
2022-08-11T03:50:10.188Z,83.80
2022-08-11T03:52:54.043Z,83.60
2022-08-11T03:55:51.008Z,83.10
2022-08-11T03:58:39.606Z,82.70
2022-08-11T04:01:42.510Z,82.20
2022-08-11T04:04:48.281Z,81.60
2022-08-11T04:07:31.639Z,80.50
2022-08-11T04:10:38.848Z,79.30
2022-08-11T04:13:54.547Z,78.70
2022-08-11T04:16:45.299Z,78.30
2022-08-11T04:19:34.264Z,77.80
2022-08-11T04:22:15.601Z,77.60
2022-08-11T04:25:04.695Z,77.10
2022-08-11T04:27:54.171Z,76.50
2022-08-11T04:30:41.465Z,76.30
2022-08-11T04:33:22.875Z,75.60
2022-08-11T04:36:03.607Z,75.60
2022-08-11T04:38:34.118Z,75.30
2022-08-11T04:41:59.254Z,75.10
2022-08-11T04:45:01.689Z,74.30
2022-08-11T04:48:24.815Z,74.10
2022-08-11T04:51:40.470Z,73.30
2022-08-11T04:55:04.397Z,73.50
2022-08-11T04:58:09.468Z,69.20
2022-08-11T05:01:21.665Z,64.80
2022-08-11T05:04:48.584Z,57.30
2022-08-11T05:07:49.915Z,52.00
2022-08-11T05:10:40.055Z,48.80
2022-08-11T05:13:33.471Z,44.40
2022-08-11T05:16:31.841Z,42.20
2022-08-11T05:19:24.862Z,40.70
2022-08-11T05:22:20.286Z,39.50
2022-08-11T05:25:10.158Z,38.30
2022-08-11T05:28:18.817Z,37.90
2022-08-11T05:31:20.144Z,36.80
2022-08-11T05:37:25.845Z,35.50
2022-08-11T05:40:30.288Z,34.90
2022-08-11T05:43:32.755Z,34.20
2022-08-11T05:46:35.020Z,33.60
2022-08-11T05:49:22.626Z,33.10
2022-08-11T05:52:12.792Z,33.20
2022-08-11T05:56:02.567Z,32.10
2022-08-11T05:58:23.446Z,31.00
2022-08-11T06:01:13.435Z,31.10
2022-08-11T06:04:13.197Z,30.70
2022-08-11T06:06:56.368Z,30.40
2022-08-11T06:09:50.093Z,29.50
2022-08-11T06:12:40.638Z,29.60
2022-08-11T06:15:31.766Z,29.20
2022-08-11T06:18:08.545Z,29.30
2022-08-11T06:20:59.363Z,29.10
2022-08-11T06:23:47.375Z,29.10
2022-08-11T06:26:24.334Z,28.70
2022-08-11T06:28:56.040Z,28.90
2022-08-11T06:31:36.974Z,28.50
2022-08-11T06:34:32.043Z,28.70
2022-08-11T06:37:36.347Z,28.30
2022-08-11T06:40:45.942Z,27.90
2022-08-11T06:43:24.287Z,27.60
2022-08-11T06:46:45.012Z,27.70
2022-08-11T06:49:37.844Z,27.70
2022-08-11T06:52:34.456Z,27.60
2022-08-11T06:56:13.575Z,27.10
2022-08-11T06:58:54.890Z,27.00
2022-08-11T07:02:09.138Z,27.00
2022-08-11T07:04:44.048Z,27.00
2022-08-11T07:07:55.008Z,26.70
2022-08-11T07:10:59.793Z,26.50
2022-08-11T07:14:02.579Z,26.70
2022-08-11T07:16:35.972Z,26.20
2022-08-11T07:20:33.970Z,26.00
2022-08-11T07:23:23.449Z,26.20
2022-08-11T07:26:21.530Z,26.30
2022-08-11T07:29:02.995Z,26.20
2022-08-11T07:31:57.410Z,26.30
2022-08-11T07:34:36.933Z,26.20
2022-08-11T07:37:19.003Z,25.90
2022-08-11T07:39:51.999Z,25.90
2022-08-11T07:42:26.664Z,25.90
2022-08-11T07:45:19.255Z,25.60
2022-08-11T07:48:13.198Z,25.60
2022-08-11T07:51:04.321Z,25.30
2022-08-11T07:54:16.227Z,25.10
2022-08-11T08:00:00.308Z,25.10
2022-08-11T08:02:45.601Z,24.80
2022-08-11T08:05:36.986Z,24.80
2022-08-11T08:12:13.316Z,24.60
2022-08-11T08:15:02.056Z,24.20
2022-08-11T08:18:09.529Z,24.60
2022-08-11T08:20:51.661Z,24.60
2022-08-11T08:23:34.067Z,24.60
2022-08-11T08:29:58.845Z,24.30
2022-08-11T08:32:28.685Z,24.00
2022-08-11T08:35:02.847Z,24.10
2022-08-11T08:37:55.376Z,24.10
2022-08-11T08:40:41.493Z,24.00
2022-08-11T08:44:38.239Z,24.00
2022-08-11T08:47:11.400Z,24.10
2022-08-11T08:50:02.111Z,24.30
2022-08-11T08:53:06.359Z,24.30
2022-08-11T08:55:41.260Z,24.00
2022-08-11T08:58:45.115Z,24.00
2022-08-11T09:02:04.618Z,23.90
2022-08-11T09:05:01.342Z,23.90
2022-08-11T09:07:59.675Z,24.20
2022-08-11T09:10:31.928Z,24.40
2022-08-11T09:13:06.251Z,24.40
2022-08-11T09:15:37.828Z,24.60
2022-08-11T09:18:20.173Z,24.50
2022-08-11T09:20:57.243Z,24.60
2022-08-11T09:27:04.730Z,25.00
2022-08-11T09:29:34.782Z,24.60
2022-08-11T09:32:07.444Z,24.90
2022-08-11T09:35:24.835Z,25.30
2022-08-11T09:38:19.850Z,25.40
2022-08-11T09:40:56.158Z,25.50
2022-08-11T09:43:49.564Z,25.00
2022-08-11T09:46:27.441Z,24.90
2022-08-11T09:48:59.694Z,24.80
2022-08-11T09:51:32.993Z,25.70
2022-08-11T09:54:07.072Z,25.70
2022-08-11T09:56:58.475Z,25.70
2022-08-11T09:59:33.546Z,25.80
2022-08-11T10:02:14.089Z,25.90
2022-08-11T10:04:48.716Z,25.90
2022-08-11T10:07:23.664Z,25.90
2022-08-11T10:10:11.712Z,25.80
2022-08-11T10:12:47.227Z,25.70
2022-08-11T10:15:37.655Z,25.80
2022-08-11T10:18:29.966Z,25.90
2022-08-11T10:21:15.375Z,26.10
2022-08-11T10:24:05.942Z,26.30
2022-08-11T10:26:53.994Z,26.40
2022-08-11T10:30:05.679Z,26.30
2022-08-11T10:32:59.005Z,26.50
2022-08-11T10:35:33.184Z,27.10
2022-08-11T10:38:09.939Z,26.70
2022-08-11T10:41:12.640Z,27.20
2022-08-11T10:44:01.481Z,27.80
2022-08-11T10:46:54.520Z,29.00
2022-08-11T10:49:26.677Z,29.20
2022-08-11T10:52:19.747Z,29.70
2022-08-11T10:55:08.123Z,29.90
2022-08-11T10:58:05.002Z,29.80
2022-08-11T11:00:57.182Z,30.20
2022-08-11T11:03:40.821Z,30.70
2022-08-11T11:06:56.201Z,30.90
2022-08-11T11:09:33.163Z,31.40
2022-08-11T11:12:59.325Z,31.50
2022-08-11T11:16:10.391Z,32.10
2022-08-11T11:18:39.344Z,32.60
2022-08-11T11:21:22.346Z,32.70
2022-08-11T11:24:14.103Z,33.00
2022-08-11T11:26:57.023Z,33.30
2022-08-11T11:29:46.092Z,33.50
2022-08-11T11:32:39.578Z,33.60
2022-08-11T11:35:45.055Z,34.00
2022-08-11T11:38:16.231Z,34.00
2022-08-11T11:40:44.765Z,34.10
2022-08-11T11:43:13.172Z,34.30
2022-08-11T11:45:45.032Z,33.90
2022-08-11T11:48:16.378Z,34.00
2022-08-11T11:50:50.390Z,34.00
2022-08-11T11:53:19.272Z,34.10
2022-08-11T11:55:53.296Z,34.20
2022-08-11T11:58:40.388Z,34.20
2022-08-11T12:01:25.140Z,34.20
2022-08-11T12:03:55.135Z,34.00
2022-08-11T12:06:27.669Z,34.10
2022-08-11T12:08:58.411Z,34.00
2022-08-11T12:11:46.724Z,33.80
2022-08-11T12:14:21.559Z,33.40
2022-08-11T12:16:50.493Z,33.20
2022-08-11T12:19:35.502Z,33.30
2022-08-11T12:22:22.858Z,33.50
2022-08-11T12:25:10.957Z,33.40
2022-08-11T12:27:42.588Z,33.50
2022-08-11T12:30:18.530Z,33.80
2022-08-11T12:32:49.115Z,33.80
2022-08-11T12:35:17.697Z,33.80
2022-08-11T12:38:05.983Z,33.80
2022-08-11T12:44:06.698Z,33.90
2022-08-11T12:46:38.257Z,33.70
2022-08-11T12:49:47.436Z,33.80
2022-08-11T12:52:24.572Z,33.80
2022-08-11T12:55:01.184Z,33.80
2022-08-11T12:57:55.352Z,33.70
2022-08-11T13:00:43.137Z,33.90
2022-08-11T13:03:32.196Z,33.90
2022-08-11T13:06:07.588Z,34.00
2022-08-11T13:08:41.237Z,34.30
2022-08-11T13:11:56.267Z,34.60
2022-08-11T13:14:36.230Z,34.60
2022-08-11T13:17:43.421Z,34.30
2022-08-11T13:20:14.226Z,34.20
2022-08-11T13:22:55.567Z,34.10
2022-08-11T13:25:25.750Z,34.00
2022-08-11T13:28:01.638Z,34.10
2022-08-11T13:30:52.465Z,34.10
2022-08-11T13:33:23.619Z,34.20
2022-08-11T13:35:53.955Z,34.00
2022-08-11T13:38:32.700Z,33.70
2022-08-11T13:41:02.113Z,33.60
2022-08-11T13:43:30.278Z,33.60
2022-08-11T13:46:22.823Z,33.80
2022-08-11T13:49:00.497Z,33.80
2022-08-11T13:51:34.864Z,33.80
2022-08-11T13:54:12.554Z,34.00
2022-08-11T13:56:44.341Z,34.20
2022-08-11T13:59:14.121Z,34.20
2022-08-11T14:02:23.020Z,34.10
2022-08-11T14:04:56.834Z,34.10
2022-08-11T14:07:28.082Z,34.10
2022-08-11T14:10:00.774Z,34.30
2022-08-11T14:12:52.074Z,34.10
2022-08-11T14:15:41.776Z,34.10
2022-08-11T14:18:21.708Z,34.00
2022-08-11T14:21:15.024Z,33.90
2022-08-11T14:23:50.122Z,34.00
2022-08-11T14:26:27.006Z,34.00
2022-08-11T14:29:11.944Z,33.80
2022-08-11T14:31:54.008Z,33.70
2022-08-11T14:34:28.149Z,33.70
2022-08-11T14:37:05.914Z,33.40
2022-08-11T14:39:50.109Z,33.40
2022-08-11T14:45:58.048Z,33.30
2022-08-11T14:48:29.477Z,33.50
2022-08-11T14:51:03.048Z,33.20
2022-08-11T14:53:32.240Z,33.30
2022-08-11T14:56:25.228Z,33.40
2022-08-11T14:58:58.018Z,33.20
2022-08-11T15:01:47.747Z,33.30
2022-08-11T15:04:35.755Z,33.30
2022-08-11T15:07:16.665Z,33.10
2022-08-11T15:10:11.855Z,33.40
2022-08-11T15:12:40.255Z,33.60
2022-08-11T15:15:31.472Z,33.80
2022-08-11T15:18:05.625Z,33.70
2022-08-11T15:21:05.500Z,33.90
2022-08-11T15:23:52.096Z,33.90
2022-08-11T15:26:50.397Z,34.20
2022-08-11T15:29:47.441Z,34.20
2022-08-11T15:32:23.157Z,34.40
2022-08-11T15:35:22.698Z,34.40
2022-08-11T15:38:02.390Z,34.50
2022-08-11T15:40:58.438Z,34.70
2022-08-11T15:43:50.269Z,34.70
2022-08-11T15:46:35.853Z,34.60
2022-08-11T15:49:22.046Z,34.80
2022-08-11T15:52:04.990Z,34.90
2022-08-11T15:54:39.272Z,35.20
2022-08-11T15:57:39.721Z,35.20
2022-08-11T16:00:34.153Z,35.40
2022-08-11T16:03:54.452Z,35.60
2022-08-11T16:06:22.476Z,35.80
2022-08-11T16:08:57.184Z,35.90
2022-08-11T16:11:26.627Z,36.20
2022-08-11T16:14:22.120Z,36.10
2022-08-11T16:16:54.720Z,36.20
2022-08-11T16:19:26.659Z,36.30
2022-08-11T16:21:57.921Z,36.50
2022-08-11T16:27:01.515Z,36.50
2022-08-11T16:27:24.530Z,36.40
2022-08-11T16:29:55.502Z,36.20
2022-08-11T16:32:26.210Z,36.20
2022-08-11T16:35:21.424Z,36.20
2022-08-11T16:38:14.165Z,36.10
2022-08-11T16:40:45.070Z,36.10
2022-08-11T16:43:37.547Z,36.30
2022-08-11T16:46:38.112Z,36.30
2022-08-11T16:49:23.234Z,36.40
2022-08-11T16:51:56.735Z,36.50
2022-08-11T16:54:30.731Z,36.50
2022-08-11T16:57:24.238Z,36.50
2022-08-11T16:59:58.725Z,36.60
2022-08-11T17:02:51.582Z,36.70
2022-08-11T17:05:54.685Z,36.60
2022-08-11T17:08:59.345Z,36.70
2022-08-11T17:11:48.830Z,36.60
2022-08-11T17:14:35.453Z,36.80
2022-08-11T17:17:11.221Z,36.80
2022-08-11T17:20:39.956Z,36.80
2022-08-11T17:22:58.231Z,36.90
2022-08-11T17:25:59.892Z,37.10
2022-08-11T17:28:26.488Z,37.20
2022-08-11T17:31:22.016Z,37.40
2022-08-11T17:34:10.454Z,37.40
2022-08-11T17:36:44.515Z,37.60
2022-08-11T17:39:15.455Z,37.70
2022-08-11T17:42:03.993Z,37.80
2022-08-11T17:44:54.967Z,37.90
2022-08-11T17:47:46.462Z,38.10
2022-08-11T17:50:17.551Z,38.10
2022-08-11T17:53:11.999Z,38.40
2022-08-11T17:56:01.003Z,38.60
2022-08-11T17:58:50.103Z,38.70
2022-08-11T18:01:19.287Z,38.90
2022-08-11T18:03:57.951Z,39.10
2022-08-11T18:06:34.043Z,39.40
2022-08-11T18:09:34.952Z,39.50
2022-08-11T18:12:26.824Z,39.70
2022-08-11T18:15:14.687Z,40.30
2022-08-11T18:18:01.691Z,40.50
2022-08-11T18:20:50.212Z,40.60
2022-08-11T18:23:46.808Z,41.50
2022-08-11T18:26:39.304Z,41.70
2022-08-11T18:29:30.343Z,42.00
2022-08-11T18:32:46.171Z,42.20
2022-08-11T18:35:34.983Z,42.50
2022-08-11T18:38:24.454Z,43.00
2022-08-11T18:41:13.982Z,43.80
2022-08-11T18:44:14.580Z,43.90
2022-08-11T18:47:07.881Z,44.20
2022-08-11T18:50:03.929Z,44.50
2022-08-11T18:52:53.221Z,44.90
2022-08-11T18:55:46.065Z,45.30
2022-08-11T18:58:44.974Z,45.70
2022-08-11T19:01:35.831Z,46.30
2022-08-11T19:04:29.980Z,46.20
2022-08-11T19:07:20.706Z,47.00
2022-08-11T19:10:08.388Z,47.20
2022-08-11T19:13:03.902Z,47.50
2022-08-11T19:15:57.107Z,47.80
2022-08-11T19:18:47.467Z,48.60
2022-08-11T19:21:35.581Z,48.50
2022-08-11T19:24:32.577Z,48.80
2022-08-11T19:27:22.971Z,49.40
2022-08-11T19:30:13.419Z,49.60
2022-08-11T19:33:00.898Z,49.90
2022-08-11T19:35:47.451Z,50.10
2022-08-11T19:38:34.240Z,50.50
2022-08-11T19:41:51.731Z,50.70
2022-08-11T19:44:30.123Z,51.10
2022-08-11T19:47:21.657Z,51.60
2022-08-11T19:50:10.695Z,52.30
2022-08-11T19:53:00.837Z,52.70
2022-08-11T19:55:48.611Z,52.90
2022-08-11T19:58:37.737Z,53.20
2022-08-11T20:01:24.345Z,53.80
2022-08-11T20:04:10.644Z,54.60
2022-08-11T20:06:57.608Z,55.10
2022-08-11T20:10:04.986Z,55.30
2022-08-11T20:12:56.237Z,55.60
2022-08-11T20:15:44.505Z,55.70
2022-08-11T20:18:32.728Z,56.10
2022-08-11T20:21:26.224Z,56.40
2022-08-11T20:24:23.544Z,56.30
2022-08-11T20:27:18.658Z,55.90
2022-08-11T20:30:12.301Z,55.50
2022-08-11T20:33:02.155Z,55.00
2022-08-11T20:35:50.549Z,54.50
2022-08-11T20:38:39.001Z,54.30
2022-08-11T20:41:58.539Z,53.70
2022-08-11T20:44:46.736Z,53.60
2022-08-11T20:47:56.832Z,53.50
2022-08-11T20:50:49.161Z,53.40
2022-08-11T20:53:39.369Z,53.50
2022-08-11T20:56:30.098Z,53.90
2022-08-11T20:59:26.057Z,54.10
2022-08-11T21:02:16.293Z,54.20
2022-08-11T21:05:02.131Z,54.30
2022-08-11T21:11:06.418Z,54.60
2022-08-11T21:13:57.871Z,54.90
2022-08-11T21:16:53.997Z,55.70
2022-08-11T21:19:59.489Z,55.80
2022-08-11T21:23:05.409Z,56.40
2022-08-11T21:25:59.972Z,56.90
2022-08-11T21:28:54.797Z,57.50
2022-08-11T21:31:45.082Z,57.50
2022-08-11T21:34:36.994Z,58.30
2022-08-11T21:37:26.830Z,59.20
2022-08-11T21:40:17.540Z,59.60
2022-08-11T21:43:06.837Z,59.70
2022-08-11T21:45:59.312Z,59.90
2022-08-11T21:48:46.645Z,60.30
2022-08-11T21:51:32.581Z,60.40
2022-08-11T21:54:23.626Z,60.80
2022-08-11T21:57:11.045Z,61.60
2022-08-11T22:00:10.521Z,61.90
2022-08-11T22:03:04.116Z,62.00
2022-08-11T22:05:52.369Z,62.60
2022-08-11T22:08:52.071Z,62.70
2022-08-11T22:11:39.996Z,62.90
2022-08-11T22:14:25.474Z,63.50
2022-08-11T22:17:11.726Z,63.30
2022-08-11T22:19:59.722Z,63.60
2022-08-11T22:22:53.023Z,63.60
2022-08-11T22:25:51.463Z,64.10
2022-08-11T22:28:39.379Z,64.20
2022-08-11T22:31:27.188Z,64.00
2022-08-11T22:34:13.229Z,64.40
2022-08-11T22:37:07.123Z,64.60
2022-08-11T22:39:59.875Z,65.00
2022-08-11T22:42:50.883Z,65.30
2022-08-11T22:45:37.990Z,65.90
2022-08-11T22:48:25.253Z,66.30
2022-08-11T22:51:14.016Z,66.30
2022-08-11T22:54:00.320Z,66.30
2022-08-11T22:56:48.478Z,66.80
2022-08-11T22:59:36.211Z,66.80
2022-08-11T23:02:23.793Z,67.40
2022-08-11T23:05:10.300Z,67.20
2022-08-11T23:08:00.800Z,67.90
2022-08-11T23:10:47.443Z,67.80
2022-08-11T23:13:38.207Z,67.90
2022-08-11T23:16:24.271Z,68.10
2022-08-11T23:19:11.750Z,68.40
2022-08-11T23:21:58.843Z,68.70
2022-08-11T23:24:46.513Z,68.60
2022-08-11T23:27:36.980Z,68.70
2022-08-11T23:30:24.035Z,69.30
2022-08-11T23:33:16.564Z,69.70
2022-08-11T23:36:05.757Z,70.10
2022-08-11T23:38:52.326Z,70.50
2022-08-11T23:41:41.718Z,70.70
2022-08-11T23:44:28.494Z,71.20
2022-08-11T23:47:18.175Z,71.40
2022-08-11T23:50:06.546Z,71.80
2022-08-11T23:52:54.163Z,71.80
2022-08-11T23:55:41.953Z,72.00
2022-08-11T23:58:36.776Z,72.10
